Time,TemperatureF,DewpointF,PressureIn,WindDirection,WindDirectionDegrees,WindSpeedMPH,WindSpeedGustMPH,Humidity,HourlyPrecipIn,Conditions,Clouds,dailyrainin,SoftwareType,DateUTC
2013-02-03 00:01:00,40.6,32.7,30.18,North,0,0.0,0.0,73,0.00,,OVC036,0.00,VWS V12.08,2013-02-03 08:01:00,
2013-02-03 00:06:00,40.3,32.3,30.18,North,0,0.0,0.0,73,0.00,,OVC036,0.00,VWS V12.08,2013-02-03 08:06:00,
2013-02-03 00:11:00,40.3,33.0,30.15,North,0,0.0,0.0,75,0.00,,OVC036,0.00,VWS V12.08,2013-02-03 08:11:00,
2013-02-03 00:16:00,40.5,33.5,30.15,North,0,0.0,0.0,76,0.00,,OVC036,0.00,VWS V12.08,2013-02-03 08:16:00,
2013-02-03 00:21:00,40.3,33.3,30.15,North,0,0.0,0.0,76,0.00,,OVC036,0.00,VWS V12.08,2013-02-03 08:21:00,
2013-02-03 00:26:00,39.9,33.0,30.15,North,0,0.0,0.0,76,0.00,,OVC036,0.00,VWS V12.08,2013-02-03 08:26:00,
2013-02-03 00:31:00,40.1,33.5,30.15,North,0,0.0,0.0,77,0.00,,OVC036,0.00,VWS V12.08,2013-02-03 08:31:00,
2013-02-03 00:36:00,40.3,33.7,30.15,North,0,0.0,0.0,77,0.00,,OVC036,0.00,VWS V12.08,2013-02-03 08:36:00,
2013-02-03 00:41:00,40.3,33.7,30.18,North,0,0.0,0.0,77,0.00,,OVC036,0.00,VWS V12.08,2013-02-03 08:41:00,
2013-02-03 00:46:00,40.3,33.7,30.18,North,0,0.0,0.0,77,0.00,,OVC036,0.00,VWS V12.08,2013-02-03 08:46:00,
2013-02-03 00:51:00,40.1,33.5,30.18,North,0,0.0,0.0,77,0.00,,OVC036,0.00,VWS V12.08,2013-02-03 08:51:00,
2013-02-03 00:56:00,40.1,33.2,30.18,North,0,0.0,0.0,76,0.00,,OVC036,0.00,VWS V12.08,2013-02-03 08:56:00,
2013-02-03 01:01:00,40.1,33.5,30.18,North,0,0.0,0.0,77,0.00,,OVC036,0.00,VWS V12.08,2013-02-03 09:01:00,
2013-02-03 01:06:00,40.1,33.5,30.18,North,0,0.0,0.0,77,0.00,,OVC036,0.00,VWS V12.08,2013-02-03 09:06:00,
2013-02-03 01:11:00,40.3,33.7,30.18,North,0,0.0,0.0,77,0.00,,OVC036,0.00,VWS V12.08,2013-02-03 09:11:00,
2013-02-03 01:16:00,40.3,33.7,30.18,North,0,0.0,0.0,77,0.00,,OVC036,0.00,VWS V12.08,2013-02-03 09:16:00,
2013-02-03 01:21:00,40.3,33.7,30.18,North,0,0.0,0.0,77,0.00,,OVC036,0.00,VWS V12.08,2013-02-03 09:21:00,
2013-02-03 01:26:00,40.3,33.3,30.18,North,0,0.0,0.0,76,0.00,,OVC036,0.00,VWS V12.08,2013-02-03 09:26:00,
2013-02-03 01:31:00,40.3,33.0,30.18,North,0,0.0,0.0,75,0.00,,OVC036,0.00,VWS V12.08,2013-02-03 09:31:00,
2013-02-03 01:36:00,40.3,33.0,30.18,North,0,0.0,0.0,75,0.00,,OVC036,0.00,VWS V12.08,2013-02-03 09:36:00,
2013-02-03 01:41:00,40.3,33.3,30.15,North,0,0.0,0.0,76,0.00,,OVC036,0.00,VWS V12.08,2013-02-03 09:41:00,
2013-02-03 01:46:00,40.3,33.3,30.15,North,0,0.0,0.0,76,0.00,,OVC036,0.00,VWS V12.08,2013-02-03 09:46:00,
2013-02-03 01:51:00,40.3,33.7,30.15,North,0,0.0,0.0,77,0.00,,OVC036,0.00,VWS V12.08,2013-02-03 09:51:00,
2013-02-03 01:56:00,40.3,33.7,30.15,North,0,0.0,0.0,77,0.00,,OVC036,0.00,VWS V12.08,2013-02-03 09:56:00,
2013-02-03 02:01:00,40.3,34.0,30.15,North,0,0.0,0.0,78,0.00,,OVC036,0.00,VWS V12.08,2013-02-03 10:01:00,
2013-02-03 02:06:00,40.3,34.0,30.15,North,0,0.0,0.0,78,0.00,,OVC036,0.00,VWS V12.08,2013-02-03 10:06:00,
2013-02-03 02:11:00,40.3,34.0,30.18,North,0,0.0,0.0,78,0.00,,OVC036,0.00,VWS V12.08,2013-02-03 10:11:00,
2013-02-03 02:16:00,40.5,34.2,30.18,North,0,0.0,0.0,78,0.00,,OVC036,0.00,VWS V12.08,2013-02-03 10:16:00,
2013-02-03 02:21:00,40.3,34.0,30.18,North,0,0.0,0.0,78,0.00,,OVC036,0.00,VWS V12.08,2013-02-03 10:21:00,
2013-02-03 02:26:00,40.3,34.0,30.18,North,0,0.0,0.0,78,0.00,,OVC036,0.00,VWS V12.08,2013-02-03 10:26:00,
2013-02-03 02:31:00,40.3,34.0,30.18,North,0,0.0,0.0,78,0.00,,OVC036,0.00,VWS V12.08,2013-02-03 10:31:00,
2013-02-03 02:36:00,40.3,34.0,30.18,North,0,0.0,0.0,78,0.00,,OVC036,0.00,VWS V12.08,2013-02-03 10:36:00,
2013-02-03 02:41:00,40.3,34.3,30.15,North,0,0.0,0.0,79,0.00,,OVC036,0.00,VWS V12.08,2013-02-03 10:41:00,
2013-02-03 02:46:00,40.3,34.3,30.15,North,0,0.0,0.0,79,0.00,,OVC036,0.00,VWS V12.08,2013-02-03 10:46:00,
2013-02-03 02:51:00,40.3,34.3,30.15,North,0,0.0,0.0,79,0.00,,OVC036,0.00,VWS V12.08,2013-02-03 10:51:00,
2013-02-03 02:56:00,40.3,34.6,30.15,North,0,0.0,0.0,80,0.00,,OVC036,0.00,VWS V12.08,2013-02-03 10:56:00,
2013-02-03 03:01:00,40.3,34.6,30.15,North,0,0.0,0.0,80,0.00,,OVC036,0.00,VWS V12.08,2013-02-03 11:01:00,
2013-02-03 03:06:00,40.3,34.9,30.15,North,0,0.0,0.0,81,0.00,,OVC036,0.00,VWS V12.08,2013-02-03 11:06:00,
2013-02-03 03:11:00,40.5,35.4,30.15,North,0,0.0,0.0,82,0.00,,OVC036,0.00,VWS V12.08,2013-02-03 11:11:00,
2013-02-03 03:16:00,40.3,35.5,30.15,North,0,0.0,0.0,83,0.00,,OVC036,0.00,VWS V12.08,2013-02-03 11:16:00,
2013-02-03 03:21:00,40.3,35.8,30.15,North,0,0.0,0.0,84,0.00,,OVC036,0.00,VWS V12.08,2013-02-03 11:21:00,
2013-02-03 03:26:00,40.5,36.3,30.12,North,0,0.0,0.0,85,0.00,,OVC036,0.00,VWS V12.08,2013-02-03 11:26:00,
2013-02-03 03:31:00,40.5,36.3,30.12,North,0,0.0,0.0,85,0.00,,OVC036,0.00,VWS V12.08,2013-02-03 11:31:00,
2013-02-03 03:36:00,40.5,36.3,30.12,North,0,0.0,0.0,85,0.00,,OVC036,0.00,VWS V12.08,2013-02-03 11:36:00,
2013-02-03 03:41:00,40.5,36.3,30.15,North,0,0.0,0.0,85,0.00,,OVC036,0.00,VWS V12.08,2013-02-03 11:41:00,
2013-02-03 03:46:00,40.5,36.3,30.15,North,0,0.0,0.0,85,0.00,,OVC036,0.00,VWS V12.08,2013-02-03 11:46:00,
2013-02-03 03:51:00,40.6,36.5,30.15,North,0,0.0,0.0,85,0.00,,OVC036,0.00,VWS V12.08,2013-02-03 11:51:00,
2013-02-03 03:56:00,40.6,36.5,30.15,North,0,0.0,0.0,85,0.00,,OVC036,0.00,VWS V12.08,2013-02-03 11:56:00,
2013-02-03 04:01:00,40.6,36.5,30.15,North,0,0.0,0.0,85,0.00,,OVC036,0.00,VWS V12.08,2013-02-03 12:01:00,
2013-02-03 04:06:00,40.6,36.5,30.15,North,0,0.0,0.0,85,0.00,,OVC036,0.00,VWS V12.08,2013-02-03 12:06:00,
2013-02-03 04:11:00,40.6,36.5,30.15,North,0,0.0,0.0,85,0.00,,OVC036,0.00,VWS V12.08,2013-02-03 12:11:00,
2013-02-03 04:16:00,40.6,36.5,30.15,North,0,0.0,0.0,85,0.00,,OVC036,0.00,VWS V12.08,2013-02-03 12:16:00,
2013-02-03 04:21:00,40.8,36.7,30.15,North,0,0.0,0.0,85,0.00,,OVC036,0.00,VWS V12.08,2013-02-03 12:21:00,
2013-02-03 04:26:00,40.6,36.5,30.15,North,0,0.0,0.0,85,0.00,,OVC036,0.00,VWS V12.08,2013-02-03 12:26:00,
2013-02-03 04:31:00,40.8,36.7,30.15,North,0,0.0,0.0,85,0.00,,OVC036,0.00,VWS V12.08,2013-02-03 12:31:00,
2013-02-03 04:36:00,40.8,36.7,30.15,North,0,0.0,0.0,85,0.00,,OVC036,0.00,VWS V12.08,2013-02-03 12:36:00,
2013-02-03 04:41:00,40.6,36.5,30.15,North,0,0.0,0.0,85,0.00,,OVC036,0.00,VWS V12.08,2013-02-03 12:41:00,
2013-02-03 04:46:00,40.6,36.5,30.15,North,0,0.0,0.0,85,0.00,,OVC036,0.00,VWS V12.08,2013-02-03 12:46:00,
2013-02-03 04:52:00,40.6,36.5,30.15,North,0,0.0,0.0,85,0.00,,OVC036,0.00,VWS V12.08,2013-02-03 12:52:00,
2013-02-03 04:57:00,40.6,36.5,30.15,North,0,0.0,0.0,85,0.00,,OVC036,0.00,VWS V12.08,2013-02-03 12:57:00,
2013-02-03 05:02:00,40.6,36.5,30.15,North,0,0.0,0.0,85,0.00,,OVC036,0.00,VWS V12.08,2013-02-03 13:02:00,
2013-02-03 05:07:00,40.8,36.7,30.15,North,0,0.0,0.0,85,0.00,,OVC036,0.00,VWS V12.08,2013-02-03 13:07:00,
2013-02-03 05:12:00,40.8,36.7,30.15,North,0,0.0,0.0,85,0.00,,OVC036,0.00,VWS V12.08,2013-02-03 13:12:00,
2013-02-03 05:17:00,40.8,36.7,30.15,North,0,0.0,0.0,85,0.00,,OVC036,0.00,VWS V12.08,2013-02-03 13:17:00,
2013-02-03 05:22:00,40.8,36.7,30.15,North,0,0.0,0.0,85,0.00,,OVC036,0.00,VWS V12.08,2013-02-03 13:22:00,
2013-02-03 05:27:00,41.0,36.8,30.15,North,0,0.0,0.0,85,0.00,,OVC036,0.00,VWS V12.08,2013-02-03 13:27:00,
2013-02-03 05:32:00,41.0,36.8,30.15,North,0,0.0,0.0,85,0.00,,OVC036,0.00,VWS V12.08,2013-02-03 13:32:00,
2013-02-03 05:37:00,41.0,36.8,30.15,North,0,0.0,0.0,85,0.00,,OVC036,0.00,VWS V12.08,2013-02-03 13:37:00,
2013-02-03 05:42:00,41.0,36.8,30.15,North,0,0.0,0.0,85,0.00,,OVC036,0.00,VWS V12.08,2013-02-03 13:42:00,
2013-02-03 05:47:00,41.0,36.8,30.15,North,0,0.0,0.0,85,0.00,,OVC036,0.00,VWS V12.08,2013-02-03 13:47:00,
2013-02-03 05:52:00,41.0,36.8,30.15,North,0,0.0,0.0,85,0.00,,OVC036,0.00,VWS V12.08,2013-02-03 13:52:00,
2013-02-03 05:57:00,41.0,36.8,30.15,North,0,0.0,0.0,85,0.00,,OVC036,0.00,VWS V12.08,2013-02-03 13:57:00,
2013-02-03 06:02:00,41.2,37.0,30.15,North,0,0.0,0.0,85,0.00,,OVC036,0.00,VWS V12.08,2013-02-03 14:02:00,
2013-02-03 06:07:00,41.2,37.0,30.15,North,0,0.0,0.0,85,0.00,,OVC036,0.00,VWS V12.08,2013-02-03 14:07:00,
2013-02-03 06:12:00,41.2,37.0,30.18,North,0,0.0,0.0,85,0.00,,OVC036,0.00,VWS V12.08,2013-02-03 14:12:00,
2013-02-03 06:17:00,41.2,37.0,30.18,North,0,0.0,0.0,85,0.00,,OVC036,0.00,VWS V12.08,2013-02-03 14:17:00,
2013-02-03 06:22:00,41.2,37.0,30.18,North,0,0.0,0.0,85,0.00,,OVC036,0.00,VWS V12.08,2013-02-03 14:22:00,
2013-02-03 06:27:00,41.2,37.0,30.18,North,0,0.0,0.0,85,0.00,,OVC036,0.00,VWS V12.08,2013-02-03 14:27:00,
2013-02-03 06:32:00,41.4,37.2,30.18,North,0,0.0,0.0,85,0.00,,OVC036,0.00,VWS V12.08,2013-02-03 14:32:00,
2013-02-03 06:37:00,41.4,37.2,30.18,North,0,0.0,0.0,85,0.00,,OVC036,0.00,VWS V12.08,2013-02-03 14:37:00,
2013-02-03 06:42:00,41.4,37.2,30.15,North,0,0.0,0.0,85,0.00,,OVC036,0.00,VWS V12.08,2013-02-03 14:42:00,
2013-02-03 06:47:00,41.4,37.2,30.15,North,0,0.0,0.0,85,0.00,,OVC036,0.00,VWS V12.08,2013-02-03 14:47:00,
2013-02-03 06:52:00,41.4,37.2,30.15,North,0,0.0,0.0,85,0.00,,OVC036,0.00,VWS V12.08,2013-02-03 14:52:00,
2013-02-03 06:57:00,41.4,37.2,30.18,North,0,0.0,0.0,85,0.00,,OVC036,0.00,VWS V12.08,2013-02-03 14:57:00,
2013-02-03 07:02:00,41.5,37.4,30.18,North,0,0.0,0.0,85,0.00,,OVC036,0.00,VWS V12.08,2013-02-03 15:02:00,
2013-02-03 07:07:00,41.4,37.2,30.18,North,0,0.0,0.0,85,0.00,,OVC036,0.00,VWS V12.08,2013-02-03 15:07:00,
2013-02-03 07:12:00,41.4,37.2,30.18,North,0,0.0,0.0,85,0.00,,OVC036,0.00,VWS V12.08,2013-02-03 15:12:00,
2013-02-03 07:17:00,41.5,37.4,30.18,North,0,0.0,0.0,85,0.00,,OVC036,0.00,VWS V12.08,2013-02-03 15:17:00,
2013-02-03 07:22:00,41.5,37.4,30.18,North,0,0.0,0.0,85,0.00,,OVC036,0.00,VWS V12.08,2013-02-03 15:22:00,
2013-02-03 07:27:00,41.5,37.4,30.18,North,0,0.0,0.0,85,0.00,,OVC036,0.00,VWS V12.08,2013-02-03 15:27:00,
2013-02-03 07:32:00,41.5,37.4,30.18,North,0,0.0,0.0,85,0.00,,OVC036,0.00,VWS V12.08,2013-02-03 15:32:00,
2013-02-03 07:37:00,41.5,37.4,30.18,North,0,0.0,0.0,85,0.00,,OVC036,0.00,VWS V12.08,2013-02-03 15:37:00,
2013-02-03 07:42:00,41.5,37.4,30.18,North,0,0.0,0.0,85,0.00,,OVC036,0.00,VWS V12.08,2013-02-03 15:42:00,
2013-02-03 07:47:00,41.5,37.4,30.18,North,0,0.0,0.0,85,0.00,,OVC036,0.00,VWS V12.08,2013-02-03 15:47:00,
2013-02-03 07:52:00,41.7,37.5,30.18,North,0,0.0,0.0,85,0.00,,OVC036,0.00,VWS V12.08,2013-02-03 15:52:00,
2013-02-03 07:57:00,41.7,37.5,30.18,North,0,0.0,0.0,85,0.00,,OVC036,0.00,VWS V12.08,2013-02-03 15:57:00,
2013-02-03 08:02:00,41.7,37.5,30.18,North,0,0.0,0.0,85,0.00,,OVC036,0.00,VWS V12.08,2013-02-03 16:02:00,
2013-02-03 08:07:00,41.7,37.5,30.18,North,0,0.0,0.0,85,0.00,,OVC036,0.00,VWS V12.08,2013-02-03 16:07:00,
2013-02-03 08:12:00,41.7,37.5,30.18,North,0,0.0,0.0,85,0.00,,OVC036,0.00,VWS V12.08,2013-02-03 16:12:00,
2013-02-03 08:17:00,41.7,37.5,30.18,North,0,0.0,0.0,85,0.00,,OVC036,0.00,VWS V12.08,2013-02-03 16:17:00,
2013-02-03 08:22:00,41.7,37.5,30.18,North,0,0.0,0.0,85,0.00,,OVC036,0.00,VWS V12.08,2013-02-03 16:22:00,
2013-02-03 08:27:00,41.9,38.0,30.18,North,0,0.0,0.0,86,0.00,,OVC036,0.00,VWS V12.08,2013-02-03 16:27:00,
2013-02-03 08:32:00,41.9,38.0,30.18,North,0,0.0,0.0,86,0.00,,OVC036,0.00,VWS V12.08,2013-02-03 16:32:00,
2013-02-03 08:37:00,41.9,38.0,30.18,North,0,0.0,0.0,86,0.00,,OVC036,0.00,VWS V12.08,2013-02-03 16:37:00,
2013-02-03 08:42:00,42.1,38.2,30.18,North,0,0.0,0.0,86,0.00,,OVC036,0.00,VWS V12.08,2013-02-03 16:42:00,
2013-02-03 08:47:00,42.1,38.2,30.18,North,0,0.0,0.0,86,0.00,,OVC036,0.00,VWS V12.08,2013-02-03 16:47:00,
2013-02-03 08:52:00,42.3,38.4,30.18,North,0,0.0,0.0,86,0.00,,OVC036,0.00,VWS V12.08,2013-02-03 16:52:00,
2013-02-03 08:57:00,42.3,38.7,30.18,North,0,0.0,0.0,87,0.00,,OVC036,0.00,VWS V12.08,2013-02-03 16:57:00,
2013-02-03 09:02:00,42.3,38.7,30.18,North,0,0.0,0.0,87,0.00,,OVC036,0.00,VWS V12.08,2013-02-03 17:02:00,
2013-02-03 09:07:00,42.3,38.7,30.18,North,0,0.0,0.0,87,0.00,,OVC036,0.00,VWS V12.08,2013-02-03 17:07:00,
2013-02-03 09:12:00,42.3,38.7,30.18,North,0,0.0,0.0,87,0.00,,OVC036,0.00,VWS V12.08,2013-02-03 17:12:00,
2013-02-03 09:17:00,42.1,38.5,30.18,North,0,0.0,0.0,87,0.00,,OVC036,0.00,VWS V12.08,2013-02-03 17:17:00,
2013-02-03 09:22:00,42.3,38.7,30.18,North,0,0.0,0.0,87,0.00,,OVC036,0.00,VWS V12.08,2013-02-03 17:22:00,
2013-02-03 09:27:00,42.3,38.7,30.18,North,0,0.0,0.0,87,0.00,,OVC036,0.00,VWS V12.08,2013-02-03 17:27:00,
2013-02-03 09:32:00,42.3,38.7,30.18,North,0,0.0,0.0,87,0.00,,OVC036,0.00,VWS V12.08,2013-02-03 17:32:00,
2013-02-03 09:37:00,42.4,38.8,30.18,North,0,0.0,0.0,87,0.00,,OVC036,0.00,VWS V12.08,2013-02-03 17:37:00,
2013-02-03 09:42:00,42.4,38.8,30.18,North,0,0.0,0.0,87,0.00,,OVC036,0.00,VWS V12.08,2013-02-03 17:42:00,
2013-02-03 09:47:00,42.6,38.7,30.18,North,0,0.0,0.0,86,0.00,,OVC036,0.00,VWS V12.08,2013-02-03 17:47:00,
2013-02-03 09:52:00,42.8,38.9,30.18,North,0,0.0,0.0,86,0.00,,OVC036,0.00,VWS V12.08,2013-02-03 17:52:00,
2013-02-03 09:57:00,42.8,38.6,30.18,North,0,0.0,0.0,85,0.00,,OVC036,0.00,VWS V12.08,2013-02-03 17:57:00,
2013-02-03 10:02:00,43.0,38.8,30.18,North,0,0.0,0.0,85,0.00,,OVC036,0.00,VWS V12.08,2013-02-03 18:02:00,
2013-02-03 10:07:00,43.2,39.0,30.18,North,0,0.0,0.0,85,0.00,,OVC036,0.00,VWS V12.08,2013-02-03 18:07:00,
2013-02-03 10:12:00,43.3,38.8,30.18,North,0,0.0,0.0,84,0.00,,OVC036,0.00,VWS V12.08,2013-02-03 18:12:00,
2013-02-03 10:17:00,43.5,38.7,30.18,North,0,0.0,0.0,83,0.00,,OVC036,0.00,VWS V12.08,2013-02-03 18:17:00,
2013-02-03 10:22:00,43.7,38.6,30.18,North,0,0.0,0.0,82,0.00,,OVC036,0.00,VWS V12.08,2013-02-03 18:22:00,
2013-02-03 10:27:00,43.9,36.8,30.15,North,0,0.0,0.0,76,0.00,,OVC036,0.00,VWS V12.08,2013-02-03 18:27:00,
2013-02-03 10:32:00,44.2,36.2,30.15,North,0,0.0,0.0,73,0.00,,OVC036,0.00,VWS V12.08,2013-02-03 18:32:00,
2013-02-03 10:37:00,44.4,35.6,30.15,North,0,0.0,0.0,71,0.00,,OVC036,0.00,VWS V12.08,2013-02-03 18:37:00,
2013-02-03 10:42:00,44.8,34.9,30.18,North,0,0.0,0.0,68,0.00,,OVC036,0.00,VWS V12.08,2013-02-03 18:42:00,
2013-02-03 10:47:00,45.0,34.3,30.18,North,0,0.0,0.0,66,0.00,,OVC036,0.00,VWS V12.08,2013-02-03 18:47:00,
2013-02-03 10:52:00,45.1,33.7,30.18,North,0,0.0,0.0,64,0.00,,OVC036,0.00,VWS V12.08,2013-02-03 18:52:00,
2013-02-03 10:57:00,45.3,33.1,30.18,North,0,0.0,0.0,62,0.00,,OVC036,0.00,VWS V12.08,2013-02-03 18:57:00,
2013-02-03 11:02:00,45.5,32.4,30.18,North,0,0.0,0.0,60,0.00,,OVC036,0.00,VWS V12.08,2013-02-03 19:02:00,
2013-02-03 11:07:00,45.7,32.6,30.18,North,0,0.0,0.0,60,0.00,,OVC036,0.00,VWS V12.08,2013-02-03 19:07:00,
2013-02-03 11:12:00,45.7,32.2,30.18,North,0,0.0,0.0,59,0.00,,OVC036,0.00,VWS V12.08,2013-02-03 19:12:00,
2013-02-03 11:17:00,45.9,32.4,30.18,North,0,0.0,0.0,59,0.00,,OVC036,0.00,VWS V12.08,2013-02-03 19:17:00,
2013-02-03 11:22:00,46.0,32.5,30.18,North,0,0.0,0.0,59,0.00,,OVC036,0.00,VWS V12.08,2013-02-03 19:22:00,
2013-02-03 11:27:00,46.0,32.5,30.18,North,0,0.0,0.0,59,0.00,,OVC036,0.00,VWS V12.08,2013-02-03 19:27:00,
2013-02-03 11:32:00,46.2,31.8,30.18,North,0,0.0,0.0,57,0.00,,OVC036,0.00,VWS V12.08,2013-02-03 19:32:00,
2013-02-03 11:37:00,46.4,31.6,30.18,North,0,0.0,0.0,56,0.00,,OVC036,0.00,VWS V12.08,2013-02-03 19:37:00,
2013-02-03 11:42:00,46.2,31.4,30.18,North,0,0.0,0.0,56,0.00,,OVC036,0.00,VWS V12.08,2013-02-03 19:42:00,
2013-02-03 11:47:00,46.2,32.3,30.18,North,0,0.0,0.0,58,0.00,,OVC036,0.00,VWS V12.08,2013-02-03 19:47:00,
2013-02-03 11:52:00,46.2,31.8,30.18,North,0,0.0,0.0,57,0.00,,OVC036,0.00,VWS V12.08,2013-02-03 19:52:00,
2013-02-03 11:57:00,46.4,31.6,30.18,North,0,0.0,0.0,56,0.00,,OVC036,0.00,VWS V12.08,2013-02-03 19:57:00,
2013-02-03 12:02:00,46.6,31.3,30.18,North,0,0.0,0.0,55,0.00,,OVC036,0.00,VWS V12.08,2013-02-03 20:02:00,
2013-02-03 12:07:00,46.8,31.5,30.18,North,0,0.0,0.0,55,0.00,,OVC036,0.00,VWS V12.08,2013-02-03 20:07:00,
2013-02-03 12:12:00,46.9,31.2,30.15,North,0,0.0,0.0,54,0.00,,OVC036,0.00,VWS V12.08,2013-02-03 20:12:00,
2013-02-03 12:17:00,46.9,30.7,30.15,North,0,0.0,0.0,53,0.00,,OVC036,0.00,VWS V12.08,2013-02-03 20:17:00,
2013-02-03 12:22:00,46.9,31.6,30.15,North,0,0.0,0.0,55,0.00,,OVC036,0.00,VWS V12.08,2013-02-03 20:22:00,
2013-02-03 12:27:00,47.1,30.9,30.15,North,0,0.0,0.0,53,0.00,,OVC036,0.00,VWS V12.08,2013-02-03 20:27:00,
2013-02-03 12:32:00,47.3,29.6,30.15,North,0,0.0,0.0,50,0.00,,OVC036,0.00,VWS V12.08,2013-02-03 20:32:00,
2013-02-03 12:37:00,47.3,29.6,30.15,North,0,0.0,0.0,50,0.00,,OVC036,0.00,VWS V12.08,2013-02-03 20:37:00,
2013-02-03 12:42:00,47.5,29.8,30.15,North,0,0.0,0.0,50,0.00,,OVC036,0.00,VWS V12.08,2013-02-03 20:42:00,
2013-02-03 12:47:00,47.5,29.8,30.15,North,0,0.0,0.0,50,0.00,,OVC036,0.00,VWS V12.08,2013-02-03 20:47:00,
2013-02-03 12:52:00,47.5,29.8,30.15,North,0,0.0,0.0,50,0.00,,OVC036,0.00,VWS V12.08,2013-02-03 20:52:00,
2013-02-03 12:57:00,47.5,30.3,30.15,North,0,0.0,0.0,51,0.00,,OVC036,0.00,VWS V12.08,2013-02-03 20:57:00,
2013-02-03 13:02:00,47.5,29.8,30.15,North,0,0.0,0.0,50,0.00,,OVC036,0.00,VWS V12.08,2013-02-03 21:02:00,
2013-02-03 13:07:00,47.5,30.8,30.15,North,0,0.0,0.0,52,0.00,,OVC036,0.00,VWS V12.08,2013-02-03 21:07:00,
2013-02-03 13:12:00,47.5,30.8,30.15,North,0,0.0,0.0,52,0.00,,OVC036,0.00,VWS V12.08,2013-02-03 21:12:00,
2013-02-03 13:17:00,47.5,30.3,30.15,North,0,0.0,0.0,51,0.00,,OVC036,0.00,VWS V12.08,2013-02-03 21:17:00,
2013-02-03 13:22:00,47.7,30.4,30.15,North,0,0.0,0.0,51,0.00,,OVC036,0.00,VWS V12.08,2013-02-03 21:22:00,
2013-02-03 13:27:00,47.5,30.3,30.15,North,0,0.0,0.0,51,0.00,,OVC036,0.00,VWS V12.08,2013-02-03 21:27:00,
2013-02-03 13:32:00,47.7,30.0,30.15,North,0,0.0,0.0,50,0.00,,OVC036,0.00,VWS V12.08,2013-02-03 21:32:00,
2013-02-03 13:37:00,47.8,30.6,30.15,North,0,0.0,0.0,51,0.00,,OVC036,0.00,VWS V12.08,2013-02-03 21:37:00,
2013-02-03 13:42:00,47.8,30.1,30.12,North,0,0.0,0.0,50,0.00,,OVC036,0.00,VWS V12.08,2013-02-03 21:42:00,
2013-02-03 13:47:00,47.7,30.0,30.12,North,0,0.0,0.0,50,0.00,,OVC036,0.00,VWS V12.08,2013-02-03 21:47:00,
2013-02-03 13:52:00,47.8,30.6,30.12,North,0,0.0,0.0,51,0.00,,OVC036,0.00,VWS V12.08,2013-02-03 21:52:00,
2013-02-03 13:57:00,47.7,30.4,30.12,North,0,0.0,0.0,51,0.00,,OVC036,0.00,VWS V12.08,2013-02-03 21:57:00,
2013-02-03 14:02:00,47.5,30.8,30.12,North,0,0.0,0.0,52,0.00,,OVC036,0.00,VWS V12.08,2013-02-03 22:02:00,
2013-02-03 14:07:00,47.3,30.6,30.12,North,0,0.0,0.0,52,0.00,,OVC036,0.00,VWS V12.08,2013-02-03 22:07:00,
2013-02-03 14:12:00,47.5,30.3,30.12,North,0,0.0,0.0,51,0.00,,OVC036,0.00,VWS V12.08,2013-02-03 22:12:00,
2013-02-03 14:17:00,47.8,30.1,30.12,North,0,0.0,0.0,50,0.00,,OVC036,0.00,VWS V12.08,2013-02-03 22:17:00,
2013-02-03 14:22:00,48.0,29.8,30.12,North,0,0.0,0.0,49,0.00,,OVC036,0.00,VWS V12.08,2013-02-03 22:22:00,
2013-02-03 14:27:00,48.0,29.8,30.12,North,0,0.0,0.0,49,0.00,,OVC036,0.00,VWS V12.08,2013-02-03 22:27:00,
2013-02-03 14:32:00,48.0,29.8,30.12,North,0,0.0,0.0,49,0.00,,OVC036,0.00,VWS V12.08,2013-02-03 22:32:00,
2013-02-03 14:37:00,47.8,30.1,30.12,North,0,0.0,0.0,50,0.00,,OVC036,0.00,VWS V12.08,2013-02-03 22:37:00,
2013-02-03 14:42:00,47.7,30.4,30.12,North,0,0.0,0.0,51,0.00,,OVC036,0.00,VWS V12.08,2013-02-03 22:42:00,
2013-02-03 14:47:00,47.7,30.4,30.12,North,0,0.0,0.0,51,0.00,,OVC036,0.00,VWS V12.08,2013-02-03 22:47:00,
2013-02-03 14:52:00,47.7,30.9,30.12,North,0,0.0,0.0,52,0.00,,OVC036,0.00,VWS V12.08,2013-02-03 22:52:00,
2013-02-03 14:57:00,47.7,30.9,30.12,North,0,0.0,0.0,52,0.00,,OVC036,0.00,VWS V12.08,2013-02-03 22:57:00,
2013-02-03 15:02:00,47.7,30.9,30.12,North,0,0.0,0.0,52,0.00,,OVC036,0.00,VWS V12.08,2013-02-03 23:02:00,
2013-02-03 15:07:00,47.5,30.8,30.12,North,0,0.0,0.0,52,0.00,,OVC036,0.00,VWS V12.08,2013-02-03 23:07:00,
2013-02-03 15:12:00,47.5,30.8,30.12,North,0,0.0,0.0,52,0.00,,OVC036,0.00,VWS V12.08,2013-02-03 23:12:00,
2013-02-03 15:17:00,47.7,30.9,30.12,North,0,0.0,0.0,52,0.00,,OVC036,0.00,VWS V12.08,2013-02-03 23:17:00,
2013-02-03 15:22:00,47.7,30.9,30.12,North,0,0.0,0.0,52,0.00,,OVC036,0.00,VWS V12.08,2013-02-03 23:22:00,
2013-02-03 15:27:00,47.8,30.6,30.12,North,0,0.0,0.0,51,0.00,,OVC036,0.00,VWS V12.08,2013-02-03 23:27:00,
2013-02-03 15:32:00,47.8,30.1,30.12,North,0,0.0,0.0,50,0.00,,OVC036,0.00,VWS V12.08,2013-02-03 23:32:00,
2013-02-03 15:37:00,47.8,30.6,30.12,North,0,0.0,0.0,51,0.00,,OVC036,0.00,VWS V12.08,2013-02-03 23:37:00,
2013-02-03 15:42:00,47.8,30.1,30.12,North,0,0.0,0.0,50,0.00,,OVC036,0.00,VWS V12.08,2013-02-03 23:42:00,
2013-02-03 15:47:00,47.8,30.1,30.12,North,0,0.0,0.0,50,0.00,,OVC036,0.00,VWS V12.08,2013-02-03 23:47:00,
2013-02-03 15:52:00,47.8,30.1,30.12,North,0,0.0,0.0,50,0.00,,OVC036,0.00,VWS V12.08,2013-02-03 23:52:00,
2013-02-03 15:57:00,47.8,30.1,30.12,North,0,0.0,0.0,50,0.00,,OVC036,0.00,VWS V12.08,2013-02-03 23:57:00,
2013-02-03 16:02:00,47.7,30.0,30.12,North,0,0.0,0.0,50,0.00,,OVC036,0.00,VWS V12.08,2013-02-04 00:02:00,
2013-02-03 16:07:00,47.7,30.0,30.12,North,0,0.0,0.0,50,0.00,,OVC036,0.00,VWS V12.08,2013-02-04 00:07:00,
2013-02-03 16:12:00,47.7,30.4,30.12,North,0,0.0,0.0,51,0.00,,OVC036,0.00,VWS V12.08,2013-02-04 00:12:00,
2013-02-03 16:17:00,47.7,30.4,30.12,North,0,0.0,0.0,51,0.00,,OVC036,0.00,VWS V12.08,2013-02-04 00:17:00,
2013-02-03 16:22:00,47.5,30.3,30.12,North,0,0.0,0.0,51,0.00,,OVC036,0.00,VWS V12.08,2013-02-04 00:22:00,
2013-02-03 16:27:00,47.5,30.3,30.12,North,0,0.0,0.0,51,0.00,,OVC036,0.00,VWS V12.08,2013-02-04 00:27:00,
2013-02-03 16:32:00,47.5,30.8,30.12,North,0,0.0,0.0,52,0.00,,OVC036,0.00,VWS V12.08,2013-02-04 00:32:00,
2013-02-03 16:37:00,47.5,30.3,30.12,North,0,0.0,0.0,51,0.00,,OVC036,0.00,VWS V12.08,2013-02-04 00:37:00,
2013-02-03 16:42:00,47.3,30.1,30.12,North,0,0.0,0.0,51,0.00,,OVC036,0.00,VWS V12.08,2013-02-04 00:42:00,
2013-02-03 16:47:00,47.3,30.6,30.12,North,0,0.0,0.0,52,0.00,,OVC036,0.00,VWS V12.08,2013-02-04 00:47:00,
2013-02-03 16:52:00,47.3,30.6,30.12,North,0,0.0,0.0,52,0.00,,OVC036,0.00,VWS V12.08,2013-02-04 00:52:00,
2013-02-03 16:57:00,47.3,31.0,30.12,North,0,0.0,0.0,53,0.00,,OVC036,0.00,VWS V12.08,2013-02-04 00:57:00,
2013-02-03 17:02:00,47.3,31.0,30.12,North,0,0.0,0.0,53,0.00,,OVC036,0.00,VWS V12.08,2013-02-04 01:02:00,
2013-02-03 17:07:00,47.1,31.4,30.12,North,0,0.0,0.0,54,0.00,,OVC036,0.00,VWS V12.08,2013-02-04 01:07:00,
2013-02-03 17:12:00,47.1,31.8,30.12,North,0,0.0,0.0,55,0.00,,OVC036,0.00,VWS V12.08,2013-02-04 01:12:00,
2013-02-03 17:17:00,47.1,32.2,30.12,North,0,0.0,0.0,56,0.00,,OVC036,0.00,VWS V12.08,2013-02-04 01:17:00,
2013-02-03 17:22:00,47.1,32.2,30.12,North,0,0.0,0.0,56,0.00,,OVC036,0.00,VWS V12.08,2013-02-04 01:22:00,
2013-02-03 17:27:00,46.9,32.1,30.12,North,0,0.0,0.0,56,0.00,,OVC036,0.00,VWS V12.08,2013-02-04 01:27:00,
2013-02-03 17:32:00,46.9,32.5,30.12,North,0,0.0,0.0,57,0.00,,OVC036,0.00,VWS V12.08,2013-02-04 01:32:00,
2013-02-03 17:37:00,46.8,32.8,30.12,North,0,0.0,0.0,58,0.00,,OVC036,0.00,VWS V12.08,2013-02-04 01:37:00,
2013-02-03 17:42:00,46.8,32.8,30.12,North,0,0.0,0.0,58,0.00,,OVC036,0.00,VWS V12.08,2013-02-04 01:42:00,
2013-02-03 17:47:00,46.8,33.2,30.12,North,0,0.0,0.0,59,0.00,,OVC036,0.00,VWS V12.08,2013-02-04 01:47:00,
2013-02-03 17:52:00,46.6,33.0,30.12,North,0,0.0,0.0,59,0.00,,OVC036,0.00,VWS V12.08,2013-02-04 01:52:00,
2013-02-03 17:57:00,46.6,33.5,30.12,North,0,0.0,0.0,60,0.00,,OVC036,0.00,VWS V12.08,2013-02-04 01:57:00,
2013-02-03 18:02:00,46.4,33.7,30.12,North,0,0.0,0.0,61,0.00,,OVC036,0.00,VWS V12.08,2013-02-04 02:02:00,
2013-02-03 18:07:00,46.4,33.7,30.12,North,0,0.0,0.0,61,0.00,,OVC036,0.00,VWS V12.08,2013-02-04 02:07:00,
2013-02-03 18:12:00,46.4,34.1,30.12,North,0,0.0,0.0,62,0.00,,OVC036,0.00,VWS V12.08,2013-02-04 02:12:00,
2013-02-03 18:17:00,46.2,34.3,30.12,North,0,0.0,0.0,63,0.00,,OVC036,0.00,VWS V12.08,2013-02-04 02:17:00,
2013-02-03 18:22:00,46.2,34.7,30.12,North,0,0.0,0.0,64,0.00,,OVC036,0.00,VWS V12.08,2013-02-04 02:22:00,
2013-02-03 18:27:00,46.2,34.7,30.12,North,0,0.0,0.0,64,0.00,,OVC036,0.00,VWS V12.08,2013-02-04 02:27:00,
2013-02-03 18:32:00,46.2,35.1,30.12,North,0,0.0,0.0,65,0.00,,OVC036,0.00,VWS V12.08,2013-02-04 02:32:00,
2013-02-03 18:37:00,46.0,35.3,30.12,North,0,0.0,0.0,66,0.00,,OVC036,0.00,VWS V12.08,2013-02-04 02:37:00,
2013-02-03 18:42:00,46.0,35.3,30.12,North,0,0.0,0.0,66,0.00,,OVC036,0.00,VWS V12.08,2013-02-04 02:42:00,
2013-02-03 18:47:00,46.0,35.7,30.12,North,0,0.0,0.0,67,0.00,,OVC036,0.00,VWS V12.08,2013-02-04 02:47:00,
2013-02-03 18:52:00,46.0,36.5,30.12,North,0,0.0,0.0,69,0.00,,OVC036,0.00,VWS V12.08,2013-02-04 02:52:00,
2013-02-03 18:57:00,46.0,36.8,30.12,North,0,0.0,0.0,70,0.00,,OVC036,0.00,VWS V12.08,2013-02-04 02:57:00,
2013-02-03 19:02:00,45.9,37.0,30.12,North,0,0.0,0.0,71,0.00,,OVC036,0.00,VWS V12.08,2013-02-04 03:02:00,
2013-02-03 19:07:00,45.9,37.4,30.12,North,0,0.0,0.0,72,0.00,,OVC036,0.00,VWS V12.08,2013-02-04 03:07:00,
2013-02-03 19:12:00,45.7,37.2,30.12,North,0,0.0,0.0,72,0.00,,OVC036,0.00,VWS V12.08,2013-02-04 03:12:00,
2013-02-03 19:17:00,45.7,37.9,30.12,North,0,0.0,0.0,74,0.00,,OVC036,0.00,VWS V12.08,2013-02-04 03:17:00,
2013-02-03 19:22:00,45.5,37.7,30.12,North,0,0.0,0.0,74,0.00,,OVC036,0.00,VWS V12.08,2013-02-04 03:22:00,
2013-02-03 19:27:00,45.5,38.0,30.12,North,0,0.0,0.0,75,0.00,,OVC036,0.00,VWS V12.08,2013-02-04 03:27:00,
2013-02-03 19:32:00,45.5,38.0,30.12,North,0,0.0,0.0,75,0.00,,OVC036,0.00,VWS V12.08,2013-02-04 03:32:00,
2013-02-03 19:37:00,45.5,38.0,30.12,North,0,0.0,0.0,75,0.00,,OVC036,0.00,VWS V12.08,2013-02-04 03:37:00,
2013-02-03 19:42:00,45.3,38.2,30.09,North,0,0.0,0.0,76,0.00,,OVC036,0.00,VWS V12.08,2013-02-04 03:42:00,
2013-02-03 19:47:00,45.3,38.2,30.09,North,0,0.0,0.0,76,0.00,,OVC036,0.00,VWS V12.08,2013-02-04 03:47:00,
2013-02-03 19:52:00,45.3,38.2,30.09,North,0,0.0,0.0,76,0.00,,OVC036,0.00,VWS V12.08,2013-02-04 03:52:00,
2013-02-03 19:57:00,45.3,38.2,30.09,North,0,0.0,0.0,76,0.00,,OVC036,0.00,VWS V12.08,2013-02-04 03:57:00,
2013-02-03 20:02:00,45.3,38.5,30.09,North,0,0.0,0.0,77,0.00,,OVC036,0.00,VWS V12.08,2013-02-04 04:02:00,
2013-02-03 20:07:00,45.3,38.5,30.09,North,0,0.0,0.0,77,0.00,,OVC036,0.00,VWS V12.08,2013-02-04 04:07:00,
2013-02-03 20:12:00,45.1,38.4,30.09,North,0,0.0,0.0,77,0.00,,OVC036,0.00,VWS V12.08,2013-02-04 04:12:00,
2013-02-03 20:17:00,45.1,38.4,30.09,North,0,0.0,0.0,77,0.00,,OVC036,0.00,VWS V12.08,2013-02-04 04:17:00,
2013-02-03 20:22:00,45.1,38.4,30.09,North,0,0.0,0.0,77,0.00,,OVC036,0.00,VWS V12.08,2013-02-04 04:22:00,
2013-02-03 20:27:00,45.0,38.2,30.09,North,0,0.0,0.0,77,0.00,,OVC036,0.00,VWS V12.08,2013-02-04 04:27:00,
2013-02-03 20:32:00,45.0,38.2,30.09,North,0,0.0,0.0,77,0.00,,OVC036,0.00,VWS V12.08,2013-02-04 04:32:00,
2013-02-03 20:37:00,45.0,38.2,30.09,North,0,0.0,0.0,77,0.00,,OVC036,0.00,VWS V12.08,2013-02-04 04:37:00,
2013-02-03 20:42:00,45.0,38.2,30.09,North,0,0.0,0.0,77,0.00,,OVC036,0.00,VWS V12.08,2013-02-04 04:42:00,
2013-02-03 20:47:00,45.0,38.2,30.09,North,0,0.0,0.0,77,0.00,,OVC036,0.00,VWS V12.08,2013-02-04 04:47:00,
2013-02-03 20:52:00,45.0,38.2,30.09,North,0,0.0,0.0,77,0.00,,OVC036,0.00,VWS V12.08,2013-02-04 04:52:00,
2013-02-03 20:57:00,44.8,38.0,30.09,North,0,0.0,0.0,77,0.00,,OVC036,0.00,VWS V12.08,2013-02-04 04:57:00,
2013-02-03 21:00:00,44.8,38.0,30.09,North,0,0.0,0.0,77,0.00,,OVC036,0.00,VWS V12.08,2013-02-04 05:00:00,
2013-02-03 21:01:00,44.8,38.0,30.09,North,0,0.0,0.0,77,0.00,,OVC036,0.00,VWS V12.08,2013-02-04 05:01:00,
2013-02-03 21:06:00,44.8,38.0,30.09,North,0,0.0,0.0,77,0.00,,OVC036,0.00,VWS V12.08,2013-02-04 05:06:00,
2013-02-03 21:11:00,44.8,38.0,30.09,North,0,0.0,0.0,77,0.00,,OVC036,0.00,VWS V12.08,2013-02-04 05:11:00,
2013-02-03 21:16:00,44.8,38.0,30.09,North,0,0.0,0.0,77,0.00,,OVC036,0.00,VWS V12.08,2013-02-04 05:16:00,
2013-02-03 21:21:00,44.6,37.8,30.09,North,0,0.0,0.0,77,0.00,,OVC036,0.00,VWS V12.08,2013-02-04 05:21:00,
2013-02-03 21:26:00,44.6,37.8,30.09,North,0,0.0,0.0,77,0.00,,OVC036,0.00,VWS V12.08,2013-02-04 05:26:00,
2013-02-03 21:31:00,44.6,37.8,30.09,North,0,0.0,0.0,77,0.00,,OVC036,0.00,VWS V12.08,2013-02-04 05:31:00,
2013-02-03 21:36:00,44.6,37.8,30.09,North,0,0.0,0.0,77,0.00,,OVC036,0.00,VWS V12.08,2013-02-04 05:36:00,
2013-02-03 21:41:00,44.6,37.8,30.09,North,0,0.0,0.0,77,0.00,,OVC036,0.00,VWS V12.08,2013-02-04 05:41:00,
2013-02-03 21:46:00,44.4,38.0,30.09,North,0,0.0,0.0,78,0.00,,OVC036,0.00,VWS V12.08,2013-02-04 05:46:00,
2013-02-03 21:51:00,44.4,38.0,30.09,North,0,0.0,0.0,78,0.00,,OVC036,0.00,VWS V12.08,2013-02-04 05:51:00,
2013-02-03 21:56:00,44.2,37.8,30.09,North,0,0.0,0.0,78,0.00,,OVC036,0.00,VWS V12.08,2013-02-04 05:56:00,
2013-02-03 22:01:00,44.2,37.8,30.09,North,0,0.0,0.0,78,0.00,,OVC036,0.00,VWS V12.08,2013-02-04 06:01:00,
2013-02-03 22:06:00,44.2,37.8,30.09,North,0,0.0,0.0,78,0.00,,OVC036,0.00,VWS V12.08,2013-02-04 06:06:00,
2013-02-03 22:11:00,44.2,37.8,30.09,North,0,0.0,0.0,78,0.00,,OVC036,0.00,VWS V12.08,2013-02-04 06:11:00,
2013-02-03 22:16:00,44.1,37.7,30.09,North,0,0.0,0.0,78,0.00,,OVC036,0.00,VWS V12.08,2013-02-04 06:16:00,
2013-02-03 22:21:00,44.1,37.7,30.09,North,0,0.0,0.0,78,0.00,,OVC036,0.00,VWS V12.08,2013-02-04 06:21:00,
2013-02-03 22:26:00,44.1,37.7,30.09,North,0,0.0,0.0,78,0.00,,OVC036,0.00,VWS V12.08,2013-02-04 06:26:00,
2013-02-03 22:31:00,44.2,37.8,30.09,North,0,0.0,0.0,78,0.00,,OVC036,0.00,VWS V12.08,2013-02-04 06:31:00,
2013-02-03 22:36:00,44.2,37.8,30.09,North,0,0.0,0.0,78,0.00,,OVC036,0.00,VWS V12.08,2013-02-04 06:36:00,
2013-02-03 22:41:00,44.1,37.7,30.09,North,0,0.0,0.0,78,0.00,,OVC036,0.00,VWS V12.08,2013-02-04 06:41:00,
2013-02-03 22:46:00,44.1,37.7,30.09,North,0,0.0,0.0,78,0.00,,OVC036,0.00,VWS V12.08,2013-02-04 06:46:00,
2013-02-03 22:51:00,44.1,37.7,30.09,North,0,0.0,0.0,78,0.00,,OVC036,0.00,VWS V12.08,2013-02-04 06:51:00,
2013-02-03 22:56:00,44.1,37.7,30.12,North,0,0.0,0.0,78,0.00,,OVC036,0.00,VWS V12.08,2013-02-04 06:56:00,
2013-02-03 23:01:00,44.1,38.0,30.12,North,0,0.0,0.0,79,0.00,,OVC036,0.00,VWS V12.08,2013-02-04 07:01:00,
2013-02-03 23:06:00,44.1,38.0,30.12,North,0,0.0,0.0,79,0.00,,OVC036,0.00,VWS V12.08,2013-02-04 07:06:00,
2013-02-03 23:11:00,44.1,38.0,30.09,North,0,0.0,0.0,79,0.00,,OVC036,0.00,VWS V12.08,2013-02-04 07:11:00,
2013-02-03 23:16:00,44.1,38.0,30.09,North,0,0.0,0.0,79,0.00,,OVC036,0.00,VWS V12.08,2013-02-04 07:16:00,
2013-02-03 23:21:00,44.1,38.0,30.09,North,0,0.0,0.0,79,0.00,,OVC036,0.00,VWS V12.08,2013-02-04 07:21:00,
2013-02-03 23:26:00,44.1,38.0,30.09,North,0,0.0,0.0,79,0.00,,OVC036,0.00,VWS V12.08,2013-02-04 07:26:00,
2013-02-03 23:31:00,44.1,38.0,30.09,North,0,0.0,0.0,79,0.00,,OVC036,0.00,VWS V12.08,2013-02-04 07:31:00,
2013-02-03 23:36:00,44.1,38.0,30.09,North,0,0.0,0.0,79,0.00,,OVC036,0.00,VWS V12.08,2013-02-04 07:36:00,
2013-02-03 23:41:00,44.1,38.0,30.09,North,0,0.0,0.0,79,0.00,,OVC036,0.00,VWS V12.08,2013-02-04 07:41:00,
2013-02-03 23:46:00,44.1,38.0,30.09,North,0,0.0,0.0,79,0.00,,OVC036,0.00,VWS V12.08,2013-02-04 07:46:00,
2013-02-03 23:51:00,44.1,38.0,30.09,North,0,0.0,0.0,79,0.00,,OVC036,0.00,VWS V12.08,2013-02-04 07:51:00,
2013-02-03 23:56:00,44.1,38.3,30.09,North,0,0.0,0.0,80,0.00,,OVC036,0.00,VWS V12.08,2013-02-04 07:56:00,